sensor_id;sensor_type;location;lat;lon;timestamp;P1;durP1;ratioP1;P2;durP2;ratioP2
3643;SDS011;1838;50.742;7.158;2022-12-18T00:00:58;42.08;;;14.15;;
3643;SDS011;1838;50.742;7.158;2022-12-18T00:03:24;39.53;;;14.10;;
3643;SDS011;1838;50.742;7.158;2022-12-18T00:05:51;43.40;;;15.15;;
3643;SDS011;1838;50.742;7.158;2022-12-18T00:08:17;50.67;;;15.73;;
3643;SDS011;1838;50.742;7.158;2022-12-18T00:10:43;40.03;;;14.35;;
3643;SDS011;1838;50.742;7.158;2022-12-18T00:13:10;38.58;;;15.15;;
3643;SDS011;1838;50.742;7.158;2022-12-18T00:15:36;47.58;;;14.18;;
3643;SDS011;1838;50.742;7.158;2022-12-18T00:18:03;47.30;;;17.15;;
3643;SDS011;1838;50.742;7.158;2022-12-18T00:20:29;49.33;;;16.87;;
3643;SDS011;1838;50.742;7.158;2022-12-18T00:22:54;39.40;;;14.70;;
3643;SDS011;1838;50.742;7.158;2022-12-18T00:25:20;40.23;;;15.23;;
3643;SDS011;1838;50.742;7.158;2022-12-18T00:27:46;32.80;;;13.10;;
3643;SDS011;1838;50.742;7.158;2022-12-18T00:30:11;48.80;;;15.07;;
3643;SDS011;1838;50.742;7.158;2022-12-18T00:32:37;44.93;;;15.97;;
3643;SDS011;1838;50.742;7.158;2022-12-18T00:35:03;50.83;;;15.73;;
3643;SDS011;1838;50.742;7.158;2022-12-18T00:37:30;43.38;;;14.35;;
3643;SDS011;1838;50.742;7.158;2022-12-18T00:39:55;47.10;;;16.50;;
3643;SDS011;1838;50.742;7.158;2022-12-18T00:42:21;50.33;;;17.27;;
3643;SDS011;1838;50.742;7.158;2022-12-18T00:45:05;42.63;;;14.45;;
3643;SDS011;1838;50.742;7.158;2022-12-18T00:47:31;43.20;;;16.53;;
3643;SDS011;1838;50.742;7.158;2022-12-18T00:49:56;33.70;;;13.93;;
3643;SDS011;1838;50.742;7.158;2022-12-18T00:52:22;50.70;;;15.70;;
3643;SDS011;1838;50.742;7.158;2022-12-18T00:54:47;43.60;;;16.30;;
3643;SDS011;1838;50.742;7.158;2022-12-18T00:57:13;55.63;;;17.20;;
3643;SDS011;1838;50.742;7.158;2022-12-18T00:59:38;48.20;;;15.70;;
3643;SDS011;1838;50.742;7.158;2022-12-18T01:02:04;61.17;;;16.80;;
3643;SDS011;1838;50.742;7.158;2022-12-18T01:04:31;47.60;;;16.23;;
3643;SDS011;1838;50.742;7.158;2022-12-18T01:06:57;43.47;;;15.85;;
3643;SDS011;1838;50.742;7.158;2022-12-18T01:09:22;48.90;;;17.43;;
3643;SDS011;1838;50.742;7.158;2022-12-18T01:11:48;41.50;;;17.10;;
3643;SDS011;1838;50.742;7.158;2022-12-18T01:14:13;46.83;;;16.60;;
3643;SDS011;1838;50.742;7.158;2022-12-18T01:16:39;52.17;;;16.70;;
3643;SDS011;1838;50.742;7.158;2022-12-18T01:19:04;45.57;;;16.30;;
3643;SDS011;1838;50.742;7.158;2022-12-18T01:21:30;49.40;;;17.10;;
3643;SDS011;1838;50.742;7.158;2022-12-18T01:23:56;43.00;;;17.67;;
3643;SDS011;1838;50.742;7.158;2022-12-18T01:26:22;38.07;;;15.40;;
3643;SDS011;1838;50.742;7.158;2022-12-18T01:28:47;46.88;;;17.27;;
3643;SDS011;1838;50.742;7.158;2022-12-18T01:31:15;52.03;;;15.50;;
3643;SDS011;1838;50.742;7.158;2022-12-18T01:33:52;57.17;;;17.33;;
3643;SDS011;1838;50.742;7.158;2022-12-18T01:38:48;33.08;;;13.57;;
3643;SDS011;1838;50.742;7.158;2022-12-18T01:41:16;44.45;;;14.45;;
3643;SDS011;1838;50.742;7.158;2022-12-18T01:43:47;35.17;;;13.48;;
3643;SDS011;1838;50.742;7.158;2022-12-18T01:46:22;46.08;;;14.13;;
3643;SDS011;1838;50.742;7.158;2022-12-18T01:48:50;41.45;;;15.80;;
3643;SDS011;1838;50.742;7.158;2022-12-18T01:51:24;40.05;;;14.68;;
3643;SDS011;1838;50.742;7.158;2022-12-18T01:53:53;35.53;;;14.30;;
3643;SDS011;1838;50.742;7.158;2022-12-18T01:56:21;41.47;;;14.03;;
3643;SDS011;1838;50.742;7.158;2022-12-18T02:01:29;36.35;;;13.60;;
3643;SDS011;1838;50.742;7.158;2022-12-18T02:04:21;33.88;;;13.55;;
3643;SDS011;1838;50.742;7.158;2022-12-18T02:06:50;40.35;;;13.70;;
3643;SDS011;1838;50.742;7.158;2022-12-18T02:09:46;41.50;;;14.77;;
3643;SDS011;1838;50.742;7.158;2022-12-18T02:12:34;47.70;;;15.10;;
3643;SDS011;1838;50.742;7.158;2022-12-18T02:15:18;54.10;;;18.85;;
3643;SDS011;1838;50.742;7.158;2022-12-18T02:17:54;40.83;;;15.43;;
3643;SDS011;1838;50.742;7.158;2022-12-18T02:20:24;48.58;;;16.35;;
3643;SDS011;1838;50.742;7.158;2022-12-18T02:23:21;48.72;;;14.60;;
3643;SDS011;1838;50.742;7.158;2022-12-18T02:26:06;40.53;;;14.60;;
3643;SDS011;1838;50.742;7.158;2022-12-18T02:29:33;47.75;;;15.15;;
3643;SDS011;1838;50.742;7.158;2022-12-18T02:31:34;45.20;;;14.18;;
3643;SDS011;1838;50.742;7.158;2022-12-18T02:34:04;50.95;;;16.10;;
3643;SDS011;1838;50.742;7.158;2022-12-18T02:36:33;57.83;;;16.95;;
3643;SDS011;1838;50.742;7.158;2022-12-18T02:39:01;44.78;;;15.20;;
3643;SDS011;1838;50.742;7.158;2022-12-18T02:41:27;40.72;;;14.13;;
3643;SDS011;1838;50.742;7.158;2022-12-18T02:43:56;44.80;;;17.55;;
3643;SDS011;1838;50.742;7.158;2022-12-18T02:49:02;38.50;;;14.23;;
3643;SDS011;1838;50.742;7.158;2022-12-18T02:55:07;47.22;;;14.85;;
3643;SDS011;1838;50.742;7.158;2022-12-18T02:57:48;41.20;;;14.25;;
3643;SDS011;1838;50.742;7.158;2022-12-18T03:00:20;46.67;;;15.23;;
3643;SDS011;1838;50.742;7.158;2022-12-18T03:03:09;45.40;;;15.73;;
3643;SDS011;1838;50.742;7.158;2022-12-18T03:05:43;58.30;;;16.55;;
3643;SDS011;1838;50.742;7.158;2022-12-18T03:08:21;59.35;;;17.77;;
3643;SDS011;1838;50.742;7.158;2022-12-18T03:10:58;51.08;;;17.63;;
3643;SDS011;1838;50.742;7.158;2022-12-18T03:13:27;58.58;;;19.83;;
3643;SDS011;1838;50.742;7.158;2022-12-18T03:15:58;54.60;;;18.63;;
3643;SDS011;1838;50.742;7.158;2022-12-18T03:18:26;48.65;;;17.60;;
3643;SDS011;1838;50.742;7.158;2022-12-18T03:21:00;48.78;;;17.70;;
3643;SDS011;1838;50.742;7.158;2022-12-18T03:23:32;64.45;;;19.50;;
3643;SDS011;1838;50.742;7.158;2022-12-18T03:26:04;52.00;;;17.58;;
3643;SDS011;1838;50.742;7.158;2022-12-18T03:28:38;42.17;;;17.92;;
3643;SDS011;1838;50.742;7.158;2022-12-18T03:31:09;48.83;;;16.52;;
3643;SDS011;1838;50.742;7.158;2022-12-18T03:33:38;50.95;;;18.92;;
3643;SDS011;1838;50.742;7.158;2022-12-18T03:36:09;61.05;;;20.02;;
3643;SDS011;1838;50.742;7.158;2022-12-18T03:38:34;56.57;;;19.33;;
3643;SDS011;1838;50.742;7.158;2022-12-18T03:43:29;54.47;;;18.33;;
3643;SDS011;1838;50.742;7.158;2022-12-18T03:46:08;61.30;;;19.00;;
3643;SDS011;1838;50.742;7.158;2022-12-18T03:48:48;49.63;;;19.67;;
3643;SDS011;1838;50.742;7.158;2022-12-18T03:51:25;63.72;;;21.25;;
3643;SDS011;1838;50.742;7.158;2022-12-18T03:53:55;48.90;;;16.85;;
3643;SDS011;1838;50.742;7.158;2022-12-18T03:56:28;52.17;;;19.98;;
3643;SDS011;1838;50.742;7.158;2022-12-18T03:58:55;56.30;;;20.30;;
3643;SDS011;1838;50.742;7.158;2022-12-18T04:01:26;60.05;;;18.88;;
3643;SDS011;1838;50.742;7.158;2022-12-18T04:03:57;60.03;;;18.85;;
3643;SDS011;1838;50.742;7.158;2022-12-18T04:06:25;58.28;;;20.33;;
3643;SDS011;1838;50.742;7.158;2022-12-18T04:08:51;60.65;;;19.85;;
3643;SDS011;1838;50.742;7.158;2022-12-18T04:11:17;52.47;;;19.23;;
3643;SDS011;1838;50.742;7.158;2022-12-18T04:13:43;61.03;;;20.87;;
3643;SDS011;1838;50.742;7.158;2022-12-18T04:16:09;54.33;;;18.73;;
3643;SDS011;1838;50.742;7.158;2022-12-18T04:18:35;60.07;;;21.50;;
3643;SDS011;1838;50.742;7.158;2022-12-18T04:21:00;59.07;;;20.53;;
3643;SDS011;1838;50.742;7.158;2022-12-18T04:23:26;58.83;;;19.43;;
3643;SDS011;1838;50.742;7.158;2022-12-18T04:25:53;62.47;;;21.15;;
3643;SDS011;1838;50.742;7.158;2022-12-18T04:28:19;55.60;;;20.13;;
3643;SDS011;1838;50.742;7.158;2022-12-18T04:30:45;57.17;;;19.05;;
3643;SDS011;1838;50.742;7.158;2022-12-18T04:33:11;58.47;;;20.27;;
3643;SDS011;1838;50.742;7.158;2022-12-18T04:35:37;58.75;;;19.77;;
3643;SDS011;1838;50.742;7.158;2022-12-18T04:38:05;47.78;;;19.25;;
3643;SDS011;1838;50.742;7.158;2022-12-18T04:40:31;44.53;;;17.33;;
3643;SDS011;1838;50.742;7.158;2022-12-18T04:42:59;57.20;;;17.38;;
3643;SDS011;1838;50.742;7.158;2022-12-18T04:45:25;47.13;;;18.93;;
3643;SDS011;1838;50.742;7.158;2022-12-18T04:47:50;52.77;;;16.97;;
3643;SDS011;1838;50.742;7.158;2022-12-18T04:50:16;57.10;;;19.03;;
3643;SDS011;1838;50.742;7.158;2022-12-18T04:52:42;47.40;;;16.10;;
3643;SDS011;1838;50.742;7.158;2022-12-18T04:55:07;42.23;;;16.67;;
3643;SDS011;1838;50.742;7.158;2022-12-18T04:57:33;49.30;;;18.40;;
3643;SDS011;1838;50.742;7.158;2022-12-18T04:59:58;43.23;;;15.07;;
3643;SDS011;1838;50.742;7.158;2022-12-18T05:02:24;39.20;;;15.33;;
3643;SDS011;1838;50.742;7.158;2022-12-18T05:04:49;41.37;;;14.30;;
3643;SDS011;1838;50.742;7.158;2022-12-18T05:07:15;41.77;;;14.50;;
3643;SDS011;1838;50.742;7.158;2022-12-18T05:09:40;40.23;;;15.73;;
3643;SDS011;1838;50.742;7.158;2022-12-18T05:12:06;45.13;;;15.93;;
3643;SDS011;1838;50.742;7.158;2022-12-18T05:14:31;41.53;;;15.17;;
3643;SDS011;1838;50.742;7.158;2022-12-18T05:16:57;42.60;;;15.17;;
3643;SDS011;1838;50.742;7.158;2022-12-18T05:19:22;39.57;;;14.43;;
3643;SDS011;1838;50.742;7.158;2022-12-18T05:21:48;38.27;;;14.13;;
3643;SDS011;1838;50.742;7.158;2022-12-18T05:24:13;41.03;;;16.07;;
3643;SDS011;1838;50.742;7.158;2022-12-18T05:26:39;45.03;;;14.80;;
3643;SDS011;1838;50.742;7.158;2022-12-18T05:29:04;36.03;;;14.80;;
3643;SDS011;1838;50.742;7.158;2022-12-18T05:31:30;48.47;;;15.47;;
3643;SDS011;1838;50.742;7.158;2022-12-18T05:33:55;36.33;;;13.87;;
3643;SDS011;1838;50.742;7.158;2022-12-18T05:36:21;34.83;;;14.60;;
3643;SDS011;1838;50.742;7.158;2022-12-18T05:38:46;45.17;;;15.53;;
3643;SDS011;1838;50.742;7.158;2022-12-18T05:41:12;31.53;;;14.17;;
3643;SDS011;1838;50.742;7.158;2022-12-18T05:43:38;46.27;;;14.73;;
3643;SDS011;1838;50.742;7.158;2022-12-18T05:46:05;44.75;;;15.32;;
3643;SDS011;1838;50.742;7.158;2022-12-18T05:48:32;41.95;;;14.40;;
3643;SDS011;1838;50.742;7.158;2022-12-18T05:51:02;39.07;;;14.93;;
3643;SDS011;1838;50.742;7.158;2022-12-18T05:53:30;41.92;;;15.48;;
3643;SDS011;1838;50.742;7.158;2022-12-18T05:55:59;39.63;;;15.20;;
3643;SDS011;1838;50.742;7.158;2022-12-18T05:58:25;46.85;;;16.05;;
3643;SDS011;1838;50.742;7.158;2022-12-18T06:00:50;37.07;;;16.03;;
3643;SDS011;1838;50.742;7.158;2022-12-18T06:03:16;53.43;;;16.30;;
3643;SDS011;1838;50.742;7.158;2022-12-18T06:05:42;55.50;;;16.63;;
3643;SDS011;1838;50.742;7.158;2022-12-18T06:08:09;41.28;;;13.98;;
3643;SDS011;1838;50.742;7.158;2022-12-18T06:10:35;41.58;;;14.95;;
3643;SDS011;1838;50.742;7.158;2022-12-18T06:13:01;45.53;;;14.77;;
3643;SDS011;1838;50.742;7.158;2022-12-18T06:15:27;55.07;;;16.40;;
3643;SDS011;1838;50.742;7.158;2022-12-18T06:17:52;41.20;;;15.87;;
3643;SDS011;1838;50.742;7.158;2022-12-18T06:20:18;54.30;;;17.67;;
3643;SDS011;1838;50.742;7.158;2022-12-18T06:22:44;51.17;;;20.07;;
3643;SDS011;1838;50.742;7.158;2022-12-18T06:25:09;45.53;;;17.27;;
3643;SDS011;1838;50.742;7.158;2022-12-18T06:27:35;43.33;;;17.70;;
3643;SDS011;1838;50.742;7.158;2022-12-18T06:30:00;61.17;;;18.93;;
3643;SDS011;1838;50.742;7.158;2022-12-18T06:32:26;48.20;;;17.98;;
3643;SDS011;1838;50.742;7.158;2022-12-18T06:34:52;58.73;;;20.30;;
3643;SDS011;1838;50.742;7.158;2022-12-18T06:37:18;63.33;;;18.65;;
3643;SDS011;1838;50.742;7.158;2022-12-18T06:39:44;59.13;;;19.70;;
3643;SDS011;1838;50.742;7.158;2022-12-18T06:42:09;46.03;;;17.67;;
3643;SDS011;1838;50.742;7.158;2022-12-18T06:44:35;53.27;;;20.37;;
3643;SDS011;1838;50.742;7.158;2022-12-18T06:47:00;50.93;;;17.80;;
3643;SDS011;1838;50.742;7.158;2022-12-18T06:49:26;62.77;;;21.37;;
3643;SDS011;1838;50.742;7.158;2022-12-18T06:51:52;49.07;;;18.00;;
3643;SDS011;1838;50.742;7.158;2022-12-18T06:54:17;51.43;;;18.07;;
3643;SDS011;1838;50.742;7.158;2022-12-18T06:56:44;58.93;;;19.67;;
3643;SDS011;1838;50.742;7.158;2022-12-18T06:59:10;49.30;;;17.73;;
3643;SDS011;1838;50.742;7.158;2022-12-18T07:01:37;57.38;;;18.25;;
3643;SDS011;1838;50.742;7.158;2022-12-18T07:04:02;51.90;;;17.47;;
3643;SDS011;1838;50.742;7.158;2022-12-18T07:06:28;44.77;;;15.63;;
3643;SDS011;1838;50.742;7.158;2022-12-18T07:08:53;60.40;;;20.60;;
3643;SDS011;1838;50.742;7.158;2022-12-18T07:11:19;52.27;;;19.20;;
3643;SDS011;1838;50.742;7.158;2022-12-18T07:13:45;47.87;;;17.70;;
3643;SDS011;1838;50.742;7.158;2022-12-18T07:16:12;47.47;;;17.33;;
3643;SDS011;1838;50.742;7.158;2022-12-18T07:18:39;37.15;;;16.63;;
3643;SDS011;1838;50.742;7.158;2022-12-18T07:21:06;47.00;;;17.90;;
3643;SDS011;1838;50.742;7.158;2022-12-18T07:23:33;39.80;;;13.75;;
3643;SDS011;1838;50.742;7.158;2022-12-18T07:26:06;45.30;;;15.90;;
3643;SDS011;1838;50.742;7.158;2022-12-18T07:28:34;41.83;;;17.80;;
3643;SDS011;1838;50.742;7.158;2022-12-18T07:31:07;39.20;;;14.48;;
3643;SDS011;1838;50.742;7.158;2022-12-18T07:33:34;48.78;;;16.33;;
3643;SDS011;1838;50.742;7.158;2022-12-18T07:36:00;45.70;;;17.70;;
3643;SDS011;1838;50.742;7.158;2022-12-18T07:38:29;47.25;;;17.23;;
3643;SDS011;1838;50.742;7.158;2022-12-18T07:41:00;48.90;;;17.13;;
3643;SDS011;1838;50.742;7.158;2022-12-18T07:43:28;40.35;;;16.50;;
3643;SDS011;1838;50.742;7.158;2022-12-18T07:45:53;40.40;;;13.80;;
3643;SDS011;1838;50.742;7.158;2022-12-18T07:48:19;40.57;;;16.00;;
3643;SDS011;1838;50.742;7.158;2022-12-18T07:50:44;50.77;;;18.73;;
3643;SDS011;1838;50.742;7.158;2022-12-18T07:53:10;47.00;;;16.77;;
3643;SDS011;1838;50.742;7.158;2022-12-18T07:55:35;43.90;;;17.97;;
3643;SDS011;1838;50.742;7.158;2022-12-18T07:58:02;41.63;;;15.57;;
3643;SDS011;1838;50.742;7.158;2022-12-18T08:00:29;42.63;;;14.57;;
3643;SDS011;1838;50.742;7.158;2022-12-18T08:02:55;43.83;;;17.13;;
3643;SDS011;1838;50.742;7.158;2022-12-18T08:05:21;50.30;;;17.50;;
3643;SDS011;1838;50.742;7.158;2022-12-18T08:07:47;49.58;;;17.50;;
3643;SDS011;1838;50.742;7.158;2022-12-18T08:10:12;40.63;;;15.97;;
3643;SDS011;1838;50.742;7.158;2022-12-18T08:12:38;55.97;;;18.10;;
3643;SDS011;1838;50.742;7.158;2022-12-18T08:15:04;59.20;;;22.53;;
3643;SDS011;1838;50.742;7.158;2022-12-18T08:17:30;58.35;;;20.83;;
3643;SDS011;1838;50.742;7.158;2022-12-18T08:19:55;56.83;;;18.40;;
3643;SDS011;1838;50.742;7.158;2022-12-18T08:22:21;51.90;;;18.53;;
3643;SDS011;1838;50.742;7.158;2022-12-18T08:24:47;58.43;;;18.77;;
3643;SDS011;1838;50.742;7.158;2022-12-18T08:27:12;45.20;;;16.10;;
3643;SDS011;1838;50.742;7.158;2022-12-18T08:29:38;76.03;;;20.87;;
3643;SDS011;1838;50.742;7.158;2022-12-18T08:32:03;58.37;;;20.50;;
3643;SDS011;1838;50.742;7.158;2022-12-18T08:34:29;44.13;;;17.00;;
3643;SDS011;1838;50.742;7.158;2022-12-18T08:36:55;51.90;;;17.57;;
3643;SDS011;1838;50.742;7.158;2022-12-18T08:39:20;57.63;;;18.37;;
3643;SDS011;1838;50.742;7.158;2022-12-18T08:41:46;46.70;;;18.40;;
3643;SDS011;1838;50.742;7.158;2022-12-18T08:44:31;51.42;;;18.60;;
3643;SDS011;1838;50.742;7.158;2022-12-18T08:47:03;44.63;;;17.80;;
3643;SDS011;1838;50.742;7.158;2022-12-18T08:49:29;47.20;;;18.13;;
3643;SDS011;1838;50.742;7.158;2022-12-18T08:51:55;52.33;;;18.27;;
3643;SDS011;1838;50.742;7.158;2022-12-18T08:54:22;43.33;;;16.55;;
3643;SDS011;1838;50.742;7.158;2022-12-18T08:56:48;38.13;;;16.13;;
3643;SDS011;1838;50.742;7.158;2022-12-18T08:59:14;51.25;;;19.70;;
3643;SDS011;1838;50.742;7.158;2022-12-18T09:01:41;46.28;;;19.00;;
3643;SDS011;1838;50.742;7.158;2022-12-18T09:04:07;58.20;;;19.57;;
3643;SDS011;1838;50.742;7.158;2022-12-18T09:06:33;61.60;;;19.85;;
3643;SDS011;1838;50.742;7.158;2022-12-18T09:08:59;53.77;;;18.63;;
3643;SDS011;1838;50.742;7.158;2022-12-18T09:11:25;52.17;;;19.80;;
3643;SDS011;1838;50.742;7.158;2022-12-18T09:13:52;45.47;;;20.02;;
3643;SDS011;1838;50.742;7.158;2022-12-18T09:16:19;41.88;;;17.92;;
3643;SDS011;1838;50.742;7.158;2022-12-18T09:18:45;52.50;;;19.10;;
3643;SDS011;1838;50.742;7.158;2022-12-18T09:21:12;38.28;;;16.63;;
3643;SDS011;1838;50.742;7.158;2022-12-18T09:23:40;44.92;;;18.80;;
3643;SDS011;1838;50.742;7.158;2022-12-18T09:26:06;55.27;;;18.93;;
3643;SDS011;1838;50.742;7.158;2022-12-18T09:28:32;44.40;;;17.50;;
3643;SDS011;1838;50.742;7.158;2022-12-18T09:30:57;49.67;;;18.60;;
3643;SDS011;1838;50.742;7.158;2022-12-18T09:33:23;51.47;;;18.70;;
3643;SDS011;1838;50.742;7.158;2022-12-18T09:35:49;54.87;;;19.87;;
3643;SDS011;1838;50.742;7.158;2022-12-18T09:38:15;49.10;;;19.63;;
3643;SDS011;1838;50.742;7.158;2022-12-18T09:40:47;49.80;;;21.80;;
3643;SDS011;1838;50.742;7.158;2022-12-18T09:43:19;55.22;;;21.45;;
3643;SDS011;1838;50.742;7.158;2022-12-18T09:45:50;50.95;;;19.27;;
3643;SDS011;1838;50.742;7.158;2022-12-18T09:48:23;65.82;;;24.40;;
3643;SDS011;1838;50.742;7.158;2022-12-18T09:50:54;62.47;;;21.27;;
3643;SDS011;1838;50.742;7.158;2022-12-18T09:53:26;62.08;;;24.13;;
3643;SDS011;1838;50.742;7.158;2022-12-18T09:55:55;51.08;;;22.63;;
3643;SDS011;1838;50.742;7.158;2022-12-18T09:58:32;61.60;;;24.38;;
3643;SDS011;1838;50.742;7.158;2022-12-18T10:01:02;62.65;;;22.23;;
3643;SDS011;1838;50.742;7.158;2022-12-18T10:03:35;58.83;;;24.67;;
3643;SDS011;1838;50.742;7.158;2022-12-18T10:06:09;64.20;;;23.53;;
3643;SDS011;1838;50.742;7.158;2022-12-18T10:14:20;53.80;;;23.35;;
3643;SDS011;1838;50.742;7.158;2022-12-18T10:22:48;46.78;;;19.55;;
3643;SDS011;1838;50.742;7.158;2022-12-18T10:28:19;48.33;;;19.95;;
3643;SDS011;1838;50.742;7.158;2022-12-18T10:30:46;49.67;;;20.65;;
3643;SDS011;1838;50.742;7.158;2022-12-18T10:33:13;41.93;;;18.90;;
3643;SDS011;1838;50.742;7.158;2022-12-18T10:35:42;45.30;;;19.05;;
3643;SDS011;1838;50.742;7.158;2022-12-18T10:40:51;44.98;;;18.42;;
3643;SDS011;1838;50.742;7.158;2022-12-18T10:43:39;42.55;;;18.67;;
3643;SDS011;1838;50.742;7.158;2022-12-18T10:48:39;39.10;;;15.43;;
3643;SDS011;1838;50.742;7.158;2022-12-18T10:53:51;38.15;;;16.15;;
3643;SDS011;1838;50.742;7.158;2022-12-18T10:56:20;46.08;;;18.17;;
3643;SDS011;1838;50.742;7.158;2022-12-18T10:58:54;42.60;;;16.15;;
3643;SDS011;1838;50.742;7.158;2022-12-18T11:01:22;38.80;;;16.02;;
3643;SDS011;1838;50.742;7.158;2022-12-18T11:06:19;39.47;;;17.20;;
3643;SDS011;1838;50.742;7.158;2022-12-18T11:09:17;32.00;;;14.80;;
3643;SDS011;1838;50.742;7.158;2022-12-18T11:11:51;34.28;;;15.23;;
3643;SDS011;1838;50.742;7.158;2022-12-18T11:14:23;32.63;;;15.10;;
3643;SDS011;1838;50.742;7.158;2022-12-18T11:16:49;34.20;;;15.68;;
3643;SDS011;1838;50.742;7.158;2022-12-18T11:21:51;33.72;;;14.60;;
3643;SDS011;1838;50.742;7.158;2022-12-18T11:24:21;36.93;;;15.23;;
3643;SDS011;1838;50.742;7.158;2022-12-18T11:26:48;40.38;;;17.48;;
3643;SDS011;1838;50.742;7.158;2022-12-18T11:29:18;33.77;;;14.87;;
3643;SDS011;1838;50.742;7.158;2022-12-18T11:31:49;33.20;;;14.65;;
3643;SDS011;1838;50.742;7.158;2022-12-18T11:34:28;39.10;;;16.70;;
3643;SDS011;1838;50.742;7.158;2022-12-18T11:36:57;36.92;;;16.65;;
3643;SDS011;1838;50.742;7.158;2022-12-18T11:39:29;39.60;;;16.50;;
3643;SDS011;1838;50.742;7.158;2022-12-18T11:44:53;42.10;;;16.67;;
3643;SDS011;1838;50.742;7.158;2022-12-18T11:47:37;43.95;;;16.13;;
3643;SDS011;1838;50.742;7.158;2022-12-18T11:50:25;34.72;;;15.80;;
3643;SDS011;1838;50.742;7.158;2022-12-18T11:53:03;34.33;;;16.38;;
3643;SDS011;1838;50.742;7.158;2022-12-18T11:55:37;33.57;;;15.00;;
3643;SDS011;1838;50.742;7.158;2022-12-18T12:01:25;33.25;;;14.23;;
3643;SDS011;1838;50.742;7.158;2022-12-18T12:09:40;45.88;;;17.80;;
3643;SDS011;1838;50.742;7.158;2022-12-18T12:12:24;39.63;;;16.08;;
3643;SDS011;1838;50.742;7.158;2022-12-18T12:23:43;41.15;;;18.88;;
3643;SDS011;1838;50.742;7.158;2022-12-18T12:35:14;36.67;;;16.23;;
3643;SDS011;1838;50.742;7.158;2022-12-18T12:40:30;40.45;;;17.73;;
3643;SDS011;1838;50.742;7.158;2022-12-18T12:43:12;47.10;;;19.40;;
3643;SDS011;1838;50.742;7.158;2022-12-18T12:48:37;34.53;;;16.92;;
3643;SDS011;1838;50.742;7.158;2022-12-18T12:51:28;42.85;;;17.63;;
3643;SDS011;1838;50.742;7.158;2022-12-18T12:53:58;47.75;;;18.73;;
3643;SDS011;1838;50.742;7.158;2022-12-18T12:56:28;37.70;;;16.80;;
3643;SDS011;1838;50.742;7.158;2022-12-18T12:59:10;40.25;;;17.92;;
3643;SDS011;1838;50.742;7.158;2022-12-18T13:01:55;45.50;;;18.17;;
3643;SDS011;1838;50.742;7.158;2022-12-18T13:07:24;39.05;;;17.10;;
3643;SDS011;1838;50.742;7.158;2022-12-18T13:15:46;43.15;;;17.48;;
3643;SDS011;1838;50.742;7.158;2022-12-18T13:18:29;43.28;;;18.50;;
3643;SDS011;1838;50.742;7.158;2022-12-18T13:31:57;47.10;;;18.90;;
3643;SDS011;1838;50.742;7.158;2022-12-18T13:34:26;39.65;;;17.33;;
3643;SDS011;1838;50.742;7.158;2022-12-18T13:36:52;41.92;;;18.15;;
3643;SDS011;1838;50.742;7.158;2022-12-18T13:44:37;46.90;;;19.55;;
3643;SDS011;1838;50.742;7.158;2022-12-18T13:49:57;45.20;;;19.10;;
3643;SDS011;1838;50.742;7.158;2022-12-18T13:52:26;39.67;;;18.60;;
3643;SDS011;1838;50.742;7.158;2022-12-18T13:54:54;44.70;;;20.00;;
3643;SDS011;1838;50.742;7.158;2022-12-18T13:57:35;43.67;;;18.40;;
3643;SDS011;1838;50.742;7.158;2022-12-18T14:02:51;46.58;;;19.65;;
3643;SDS011;1838;50.742;7.158;2022-12-18T14:07:52;38.05;;;17.92;;
3643;SDS011;1838;50.742;7.158;2022-12-18T14:10:19;49.40;;;17.98;;
3643;SDS011;1838;50.742;7.158;2022-12-18T14:12:46;41.10;;;18.37;;
3643;SDS011;1838;50.742;7.158;2022-12-18T14:17:55;49.83;;;18.63;;
3643;SDS011;1838;50.742;7.158;2022-12-18T14:20:24;39.70;;;17.45;;
3643;SDS011;1838;50.742;7.158;2022-12-18T14:22:50;43.67;;;17.95;;
3643;SDS011;1838;50.742;7.158;2022-12-18T14:25:23;48.97;;;19.90;;
3643;SDS011;1838;50.742;7.158;2022-12-18T14:33:05;41.65;;;18.35;;
3643;SDS011;1838;50.742;7.158;2022-12-18T14:35:37;39.67;;;17.45;;
3643;SDS011;1838;50.742;7.158;2022-12-18T14:38:21;35.80;;;16.23;;
3643;SDS011;1838;50.742;7.158;2022-12-18T14:40:56;47.90;;;18.77;;
3643;SDS011;1838;50.742;7.158;2022-12-18T14:43:27;38.88;;;18.05;;
3643;SDS011;1838;50.742;7.158;2022-12-18T14:45:53;49.58;;;19.58;;
3643;SDS011;1838;50.742;7.158;2022-12-18T14:51:00;46.75;;;19.63;;
3643;SDS011;1838;50.742;7.158;2022-12-18T14:53:35;45.97;;;18.63;;
3643;SDS011;1838;50.742;7.158;2022-12-18T14:56:13;45.25;;;18.92;;
3643;SDS011;1838;50.742;7.158;2022-12-18T15:01:20;41.65;;;19.05;;
3643;SDS011;1838;50.742;7.158;2022-12-18T15:03:49;38.80;;;17.13;;
3643;SDS011;1838;50.742;7.158;2022-12-18T15:06:16;39.40;;;17.50;;
3643;SDS011;1838;50.742;7.158;2022-12-18T15:08:55;46.25;;;18.60;;
3643;SDS011;1838;50.742;7.158;2022-12-18T15:11:28;47.08;;;19.30;;
3643;SDS011;1838;50.742;7.158;2022-12-18T15:13:58;42.28;;;18.50;;
3643;SDS011;1838;50.742;7.158;2022-12-18T15:16:24;43.97;;;17.92;;
3643;SDS011;1838;50.742;7.158;2022-12-18T15:18:50;48.27;;;19.53;;
3643;SDS011;1838;50.742;7.158;2022-12-18T15:21:17;47.30;;;20.20;;
3643;SDS011;1838;50.742;7.158;2022-12-18T15:26:10;47.23;;;20.43;;
3643;SDS011;1838;50.742;7.158;2022-12-18T15:28:38;49.65;;;21.60;;
3643;SDS011;1838;50.742;7.158;2022-12-18T15:33:36;50.50;;;20.50;;
3643;SDS011;1838;50.742;7.158;2022-12-18T15:36:04;53.35;;;21.10;;
3643;SDS011;1838;50.742;7.158;2022-12-18T15:38:34;46.22;;;20.98;;
3643;SDS011;1838;50.742;7.158;2022-12-18T15:41:00;50.00;;;20.77;;
3643;SDS011;1838;50.742;7.158;2022-12-18T15:43:26;53.70;;;22.00;;
3643;SDS011;1838;50.742;7.158;2022-12-18T15:48:28;53.92;;;22.38;;
3643;SDS011;1838;50.742;7.158;2022-12-18T15:50:54;59.67;;;22.23;;
3643;SDS011;1838;50.742;7.158;2022-12-18T15:53:22;47.47;;;20.00;;
3643;SDS011;1838;50.742;7.158;2022-12-18T15:55:48;51.67;;;21.48;;
3643;SDS011;1838;50.742;7.158;2022-12-18T15:58:32;50.13;;;20.27;;
3643;SDS011;1838;50.742;7.158;2022-12-18T16:00:58;53.77;;;22.10;;
3643;SDS011;1838;50.742;7.158;2022-12-18T16:03:25;47.42;;;21.23;;
3643;SDS011;1838;50.742;7.158;2022-12-18T16:05:50;52.77;;;20.93;;
3643;SDS011;1838;50.742;7.158;2022-12-18T16:08:16;47.77;;;21.27;;
3643;SDS011;1838;50.742;7.158;2022-12-18T16:10:41;48.67;;;20.80;;
3643;SDS011;1838;50.742;7.158;2022-12-18T16:13:10;62.80;;;24.40;;
3643;SDS011;1838;50.742;7.158;2022-12-18T16:15:38;53.30;;;24.67;;
3643;SDS011;1838;50.742;7.158;2022-12-18T16:18:04;60.60;;;22.63;;
3643;SDS011;1838;50.742;7.158;2022-12-18T16:20:29;64.50;;;24.47;;
3643;SDS011;1838;50.742;7.158;2022-12-18T16:22:55;55.50;;;23.47;;
3643;SDS011;1838;50.742;7.158;2022-12-18T16:25:21;52.70;;;22.17;;
3643;SDS011;1838;50.742;7.158;2022-12-18T16:27:52;56.30;;;23.02;;
3643;SDS011;1838;50.742;7.158;2022-12-18T16:30:21;49.13;;;21.90;;
3643;SDS011;1838;50.742;7.158;2022-12-18T16:32:48;51.63;;;21.90;;
3643;SDS011;1838;50.742;7.158;2022-12-18T16:35:15;53.90;;;23.38;;
3643;SDS011;1838;50.742;7.158;2022-12-18T16:37:41;51.97;;;22.50;;
3643;SDS011;1838;50.742;7.158;2022-12-18T16:40:09;51.67;;;21.80;;
3643;SDS011;1838;50.742;7.158;2022-12-18T16:42:37;56.92;;;23.30;;
3643;SDS011;1838;50.742;7.158;2022-12-18T16:45:04;56.88;;;24.88;;
3643;SDS011;1838;50.742;7.158;2022-12-18T16:47:30;64.25;;;23.77;;
3643;SDS011;1838;50.742;7.158;2022-12-18T16:49:56;52.77;;;21.33;;
3643;SDS011;1838;50.742;7.158;2022-12-18T16:52:22;49.27;;;22.30;;
3643;SDS011;1838;50.742;7.158;2022-12-18T16:54:47;47.87;;;21.40;;
3643;SDS011;1838;50.742;7.158;2022-12-18T16:57:14;60.23;;;24.70;;
3643;SDS011;1838;50.742;7.158;2022-12-18T16:59:41;54.83;;;22.63;;
3643;SDS011;1838;50.742;7.158;2022-12-18T17:02:12;59.63;;;21.50;;
3643;SDS011;1838;50.742;7.158;2022-12-18T17:04:42;51.75;;;21.00;;
3643;SDS011;1838;50.742;7.158;2022-12-18T17:07:08;54.65;;;22.50;;
3643;SDS011;1838;50.742;7.158;2022-12-18T17:09:34;49.80;;;20.98;;